Time;durP1;ratioP1;P1;durP2;ratioP2;P2;SDS_P1;SDS_P2;PMS_P1;PMS_P2;Temp;Humidity;BMP_temperature;BMP_pressure;BME280_temperature;BME280_humidity;BME280_pressure;Samples;Min_cycle;Max_cycle;Signal;HPM_P1;HPM_P2
2022/09/05 00:00:13;;;;;;;2.85;2.45;;;;;;;19.80;62.81;99904.78;338507;29;1004;-78
2022/09/05 00:00:29;;;;;;;3.60;2.50;;;;;;;19.82;62.94;99905.50;338452;29;1020;-77
2022/09/05 00:00:43;;;;;;;4.47;2.50;;;;;;;19.83;62.97;99907.19;338599;29;1035;-77
2022/09/05 00:01:04;;;;;;;4.30;2.58;;;;;;;19.84;63.16;99914.16;337317;29;1013;-77
2022/09/05 00:01:22;;;;;;;2.88;2.30;;;;;;;19.84;62.87;99908.91;337181;29;1300;-77
2022/09/05 00:02:08;;;;;;;3.85;2.40;;;;;;;19.85;63.01;99910.56;337231;29;1362;-77
2022/09/05 00:02:25;;;;;;;3.75;2.13;;;;;;;19.85;63.15;99910.56;337441;29;870;-77
2022/09/05 00:03:01;;;;;;;2.50;2.30;;;;;;;19.83;63.49;99912.47;337152;29;1037;-77
2022/09/05 00:03:39;;;;;;;2.60;2.40;;;;;;;19.83;63.32;99909.81;338169;29;1211;-77
2022/09/05 00:03:57;;;;;;;3.10;2.50;;;;;;;19.83;63.32;99904.53;338522;29;1178;-77
2022/09/05 00:04:47;;;;;;;3.50;2.33;;;;;;;19.81;63.69;99903.81;338621;29;1351;-77
2022/09/05 00:05:29;;;;;;;3.22;2.38;;;;;;;19.81;63.93;99906.44;338687;29;1202;-77
2022/09/05 00:05:44;;;;;;;2.55;2.35;;;;;;;19.82;63.75;99905.50;338548;29;1040;-77
2022/09/05 00:06:15;;;;;;;2.53;2.33;;;;;;;19.85;63.52;99907.94;338696;29;1055;-77
2022/09/05 00:06:33;;;;;;;2.55;2.30;;;;;;;19.82;63.64;99904.66;338581;29;1328;-77
2022/09/05 00:07:16;;;;;;;2.40;2.20;;;;;;;19.87;63.31;99908.66;338500;29;1049;-77
2022/09/05 00:08:15;;;;;;;2.78;2.30;;;;;;;19.83;63.48;99909.00;338323;29;1427;-77
2022/09/05 00:08:32;;;;;;;4.10;2.55;;;;;;;19.79;63.72;99905.69;333248;29;1198;-77
2022/09/05 00:09:19;;;;;;;4.88;2.50;;;;;;;19.84;63.48;99903.63;337502;29;1018;-77
2022/09/05 00:09:44;;;;;;;2.70;2.22;;;;;;;19.87;63.31;99903.41;334185;29;1058;-77
2022/09/05 00:10:17;;;;;;;2.40;2.20;;;;;;;19.82;63.91;99902.88;334408;29;1325;-77
2022/09/05 00:11:06;;;;;;;2.83;2.40;;;;;;;19.83;63.89;99901.91;334408;29;1220;-77
2022/09/05 00:12:01;;;;;;;2.65;2.40;;;;;;;19.81;64.28;99903.81;338305;29;1521;-78
2022/09/05 00:12:14;;;;;;;2.88;2.30;;;;;;;19.84;64.22;99900.09;338703;29;1178;-77
2022/09/05 00:12:31;;;;;;;2.85;2.47;;;;;;;19.84;64.17;99900.97;338553;29;1186;-77
2022/09/05 00:12:45;;;;;;;3.15;2.30;;;;;;;19.86;63.92;99909.63;338622;29;1550;-77
2022/09/05 00:13:00;;;;;;;3.83;2.15;;;;;;;19.88;63.77;99901.59;338500;29;1185;-77
2022/09/05 00:13:23;;;;;;;3.15;2.22;;;;;;;19.89;63.83;99901.50;338466;29;1182;-77
2022/09/05 00:13:43;;;;;;;2.55;2.20;;;;;;;19.91;64.07;99904.88;338537;29;1104;-77
2022/09/05 00:14:04;;;;;;;2.70;2.20;;;;;;;19.91;63.71;99910.16;338687;29;1032;-77
2022/09/05 00:14:28;;;;;;;3.95;2.20;;;;;;;19.94;63.28;99896.75;338505;29;1190;-77
2022/09/05 00:15:24;;;;;;;2.80;2.17;;;;;;;19.93;63.58;99905.63;338529;29;1335;-77
2022/09/05 00:15:58;;;;;;;3.25;2.08;;;;;;;19.92;63.73;99900.44;338553;29;1093;-77
2022/09/05 00:16:19;;;;;;;3.28;2.15;;;;;;;19.86;63.93;99903.50;338895;29;844;-77
2022/09/05 00:16:57;;;;;;;3.15;2.13;;;;;;;19.82;64.07;99900.25;338501;29;928;-77
2022/09/05 00:17:16;;;;;;;2.70;2.22;;;;;;;19.82;64.11;99904.66;338155;29;1229;-77
2022/09/05 00:17:40;;;;;;;2.90;2.15;;;;;;;19.83;64.00;99906.34;338739;29;1083;-77
2022/09/05 00:18:23;;;;;;;3.50;1.92;;;;;;;19.89;63.88;99911.22;338542;29;1477;-77
2022/09/05 00:19:40;;;;;;;2.95;2.28;;;;;;;19.88;63.82;99897.19;338666;29;1540;-77
2022/09/05 00:20:49;;;;;;;2.65;2.22;;;;;;;19.93;63.65;99902.13;338556;29;1483;-77
2022/09/05 00:21:42;;;;;;;3.17;2.20;;;;;;;19.94;63.54;99904.69;338525;29;1487;-78
2022/09/05 00:22:29;;;;;;;2.78;2.42;;;;;;;19.96;63.51;99896.66;338523;29;1352;-78
2022/09/05 00:23:17;;;;;;;3.63;2.35;;;;;;;19.95;63.61;99895.81;338494;29;1643;-78
2022/09/05 00:24:20;;;;;;;2.40;2.20;;;;;;;19.97;63.71;99897.50;338534;29;1994;-78
2022/09/05 00:25:25;;;;;;;2.60;2.33;;;;;;;19.97;63.70;99894.88;338088;29;1424;-77
2022/09/05 00:26:08;;;;;;;4.20;2.55;;;;;;;19.99;63.81;99903.53;338433;29;1188;-77
2022/09/05 00:26:51;;;;;;;3.72;2.53;;;;;;;20.00;63.74;99899.94;338286;29;1276;-77
2022/09/05 00:27:14;;;;;;;3.08;2.50;;;;;;;20.00;63.96;99902.56;338523;29;1076;-78
2022/09/05 00:28:01;;;;;;;3.28;2.50;;;;;;;20.04;63.70;99901.41;338556;29;1103;-78
2022/09/05 00:29:00;;;;;;;2.65;2.30;;;;;;;20.01;63.75;99899.00;336854;29;1551;-77
2022/09/05 00:29:25;;;;;;;4.88;2.70;;;;;;;19.98;63.68;99902.69;337021;29;1109;-77
2022/09/05 00:30:17;;;;;;;3.13;2.55;;;;;;;19.97;63.99;99898.34;338672;29;1401;-77
2022/09/05 00:31:17;;;;;;;2.40;2.20;;;;;;;19.99;64.13;99901.72;338348;29;1504;-78
2022/09/05 00:32:21;;;;;;;2.50;2.30;;;;;;;20.00;63.72;99903.44;338447;29;1542;-78
2022/09/05 00:32:56;;;;;;;3.10;2.45;;;;;;;20.00;63.83;99889.38;334842;29;1201;-77
2022/09/05 00:33:27;;;;;;;2.92;2.38;;;;;;;20.01;63.78;99893.72;338527;29;1132;-78
2022/09/05 00:34:18;;;;;;;2.90;2.40;;;;;;;19.99;64.25;99892.97;338612;29;1087;-78
2022/09/05 00:35:07;;;;;;;2.88;2.60;;;;;;;19.98;64.17;99892.13;334572;29;1243;-78
2022/09/05 00:35:51;;;;;;;3.97;2.35;;;;;;;20.02;63.72;99890.09;338443;29;1192;-77
2022/09/05 00:36:09;;;;;;;3.88;2.58;;;;;;;20.02;63.68;99888.34;338480;29;1180;-77
2022/09/05 00:36:27;;;;;;;5.53;2.40;;;;;;;19.99;63.69;99885.06;338736;29;1636;-77
2022/09/05 00:36:44;;;;;;;3.20;2.47;;;;;;;19.94;63.84;99893.25;338497;29;1191;-77
2022/09/05 00:36:56;;;;;;;4.10;2.53;;;;;;;19.93;63.84;99887.16;338600;29;1605;-77
2022/09/05 00:37:10;;;;;;;5.40;3.10;;;;;;;19.92;64.29;99890.75;338540;29;1096;-77
2022/09/05 00:37:38;;;;;;;4.60;3.20;;;;;;;19.90;64.93;99890.00;338508;29;1070;-77
2022/09/05 00:37:52;;;;;;;5.63;2.83;;;;;;;19.91;64.42;99890.84;338405;29;1307;-77
2022/09/05 00:38:14;;;;;;;5.00;2.67;;;;;;;19.92;64.36;99893.38;338457;29;1023;-77
2022/09/05 00:38:27;;;;;;;2.40;2.20;;;;;;;19.95;64.22;99884.41;338497;29;1027;-77
2022/09/05 00:38:57;;;;;;;2.78;2.40;;;;;;;19.92;64.44;99889.88;338517;29;1102;-78
2022/09/05 00:39:17;;;;;;;2.60;2.40;;;;;;;19.92;64.14;99893.38;338702;29;1068;-78
2022/09/05 00:39:38;;;;;;;2.55;2.30;;;;;;;19.95;64.13;99887.06;338524;29;1185;-77
2022/09/05 00:39:51;;;;;;;4.25;2.42;;;;;;;19.98;64.16;99891.28;338571;29;1184;-78
2022/09/05 00:40:34;;;;;;;2.72;2.53;;;;;;;20.00;63.95;99887.59;338423;29;1551;-77
2022/09/05 00:41:03;;;;;;;3.47;2.50;;;;;;;19.99;63.91;99890.34;338500;29;944;-78
2022/09/05 00:41:17;;;;;;;3.33;2.60;;;;;;;19.98;63.93;99888.63;338566;29;1887;-77
2022/09/05 00:41:30;;;;;;;3.70;2.60;;;;;;;20.00;63.59;99889.38;338554;29;1152;-77
2022/09/05 00:41:48;;;;;;;3.40;2.70;;;;;;;19.99;63.96;99885.06;338507;29;1059;-77
2022/09/05 00:42:10;;;;;;;2.88;2.55;;;;;;;19.99;63.92;99885.91;338475;29;1015;-77
2022/09/05 00:42:24;;;;;;;3.60;2.43;;;;;;;20.01;63.87;99893.72;338504;29;1117;-77
2022/09/05 00:42:37;;;;;;;2.97;2.58;;;;;;;20.00;63.91;99889.38;338588;29;1092;-77
2022/09/05 00:42:54;;;;;;;2.88;2.50;;;;;;;20.00;63.67;99889.38;338612;29;1231;-77
2022/09/05 00:43:11;;;;;;;3.05;2.65;;;;;;;20.00;63.73;99887.59;338466;29;1077;-77
2022/09/05 00:43:28;;;;;;;3.08;2.70;;;;;;;19.99;64.11;99885.06;338525;29;1008;-77
2022/09/05 00:43:45;;;;;;;3.65;2.60;;;;;;;19.98;63.81;99886.84;338386;29;1148;-77
2022/09/05 00:44:00;;;;;;;3.83;2.60;;;;;;;19.95;63.92;99885.25;338482;29;1101;-77
2022/09/05 00:44:13;;;;;;;3.72;2.65;;;;;;;19.95;63.91;99879.97;338507;29;1115;-77
2022/09/05 00:44:32;;;;;;;4.10;2.60;;;;;;;19.94;63.92;99883.56;338461;29;1287;-77
2022/09/05 00:44:57;;;;;;;3.42;2.45;;;;;;;19.94;64.16;99885.34;338479;29;1108;-77
2022/09/05 00:45:15;;;;;;;3.45;2.40;;;;;;;19.87;64.02;99892.84;338447;29;1121;-77
2022/09/05 00:45:53;;;;;;;4.05;2.50;;;;;;;19.84;64.37;99879.88;338499;29;1001;-77
2022/09/05 00:46:15;;;;;;;4.80;2.60;;;;;;;19.85;64.05;99884.19;338433;29;1056;-77
2022/09/05 00:46:33;;;;;;;3.95;2.83;;;;;;;19.86;64.03;99885.88;338445;29;1028;-77
2022/09/05 00:46:58;;;;;;;4.90;2.47;;;;;;;19.86;64.07;99880.63;338489;29;1907;-77
2022/09/05 00:47:22;;;;;;;6.00;2.40;;;;;;;19.88;64.08;99880.50;338483;29;1081;-77
2022/09/05 00:47:44;;;;;;;2.55;2.30;;;;;;;19.87;64.14;99884.94;338606;29;1131;-77
2022/09/05 00:48:11;;;;;;;2.88;2.50;;;;;;;19.88;63.91;99884.00;337268;29;1100;-77
2022/09/05 00:48:41;;;;;;;4.35;2.60;;;;;;;19.88;63.92;99881.34;337257;29;1045;-77
2022/09/05 00:49:16;;;;;;;4.38;2.33;;;;;;;19.90;63.73;99882.09;337058;29;1049;-78
2022/09/05 00:49:37;;;;;;;2.85;2.45;;;;;;;19.90;63.81;99884.72;337263;29;1079;-78
2022/09/05 00:49:58;;;;;;;3.00;2.40;;;;;;;19.85;64.05;99881.53;337132;29;1061;-78
2022/09/05 00:50:34;;;;;;;3.83;2.37;;;;;;;19.88;63.89;99884.00;338519;29;1073;-77
2022/09/05 00:51:05;;;;;;;3.53;2.20;;;;;;;19.90;63.81;99886.50;338410;29;1185;-77
2022/09/05 00:51:35;;;;;;;3.10;2.30;;;;;;;19.89;63.68;99885.66;338209;29;1204;-77
2022/09/05 00:51:59;;;;;;;3.70;2.35;;;;;;;19.88;64.06;99878.72;337325;29;1347;-77
2022/09/05 00:52:34;;;;;;;4.27;2.40;;;;;;;19.88;63.94;99884.00;337285;29;1249;-77
2022/09/05 00:53:16;;;;;;;2.72;2.35;;;;;;;19.89;64.10;99876.91;337332;29;1112;-77
2022/09/05 00:53:40;;;;;;;2.85;2.50;;;;;;;19.89;63.96;99876.91;337042;29;1053;-77
2022/09/05 00:54:07;;;;;;;3.83;2.60;;;;;;;19.88;63.97;99878.72;338523;29;1234;-77
2022/09/05 00:54:28;;;;;;;3.80;2.22;;;;;;;19.89;63.84;99877.75;338406;29;1353;-77
2022/09/05 00:54:58;;;;;;;3.30;2.25;;;;;;;19.91;63.91;99877.66;338364;29;1177;-77
2022/09/05 00:55:38;;;;;;;2.47;2.22;;;;;;;19.90;63.95;99876.81;338548;29;904;-78
2022/09/05 00:56:33;;;;;;;2.53;2.28;;;;;;;19.88;63.97;99885.75;338544;29;1061;-77
2022/09/05 00:57:12;;;;;;;3.58;2.47;;;;;;;19.86;63.97;99883.25;335657;29;1201;-78
2022/09/05 00:57:29;;;;;;;4.35;2.42;;;;;;;19.83;64.22;99878.16;335375;29;1166;-77
2022/09/05 00:58:09;;;;;;;4.70;2.50;;;;;;;19.85;64.11;99878.91;335894;29;1029;-77
2022/09/05 00:58:36;;;;;;;3.10;2.50;;;;;;;19.84;64.01;99887.78;338579;29;1032;-77
2022/09/05 00:59:04;;;;;;;2.70;2.50;;;;;;;19.86;64.06;99879.75;338348;29;1204;-77
2022/09/05 00:59:54;;;;;;;4.68;2.70;;;;;;;19.87;63.78;99884.94;338475;29;1105;-78
2022/09/05 01:00:12;;;;;;;3.37;2.50;;;;;;;19.85;63.95;99876.28;338263;29;999;-77
2022/09/05 01:00:31;;;;;;;3.22;2.40;;;;;;;19.87;63.84;99882.28;338456;29;1048;-77
2022/09/05 01:00:49;;;;;;;3.20;2.53;;;;;;;19.85;63.94;99873.63;338669;29;1223;-77
2022/09/05 01:01:18;;;;;;;3.08;2.60;;;;;;;19.86;63.80;99879.75;338498;29;1283;-77
2022/09/05 01:01:52;;;;;;;2.80;2.50;;;;;;;19.81;64.22;99881.88;338574;29;1087;-77
2022/09/05 01:02:30;;;;;;;2.90;2.45;;;;;;;19.78;64.34;99885.56;338505;29;1350;-77
2022/09/05 01:03:25;;;;;;;3.47;2.50;;;;;;;19.80;63.99;99886.31;338626;29;1299;-78
2022/09/05 01:03:46;;;;;;;2.60;2.40;;;;;;;19.77;64.02;99886.50;338348;29;1344;-77
2022/09/05 01:04:20;;;;;;;2.75;2.47;;;;;;;19.78;64.11;99888.19;338489;29;1064;-77
2022/09/05 01:04:50;;;;;;;2.58;2.25;;;;;;;19.77;64.10;99886.50;338196;29;1050;-77
2022/09/05 01:05:39;;;;;;;2.63;2.40;;;;;;;19.78;64.11;99888.19;338472;29;1072;-77
2022/09/05 01:06:27;;;;;;;2.83;2.42;;;;;;;19.76;64.14;99884.81;338504;29;1088;-78
2022/09/05 01:07:11;;;;;;;4.68;2.60;;;;;;;19.74;64.19;99887.56;338451;29;1082;-78
2022/09/05 01:07:41;;;;;;;4.20;2.70;;;;;;;19.70;64.32;99886.03;334461;29;1903;-78
2022/09/05 01:08:21;;;;;;;3.45;2.55;;;;;;;19.68;64.62;99887.06;334672;29;1199;-78
2022/09/05 01:09:01;;;;;;;3.67;2.55;;;;;;;19.68;64.49;99887.06;338582;29;1115;-78
2022/09/05 01:09:32;;;;;;;2.85;2.42;;;;;;;19.64;65.08;99885.59;338386;29;1773;-78
2022/09/05 01:10:04;;;;;;;2.75;2.53;;;;;;;19.64;64.81;99886.44;338475;29;1068;-78
2022/09/05 01:10:42;;;;;;;4.15;2.45;;;;;;;19.65;64.86;99879.38;338509;29;1064;-78
2022/09/05 01:11:03;;;;;;;3.63;2.38;;;;;;;19.66;64.80;99883.69;338474;29;1076;-77
2022/09/05 01:11:42;;;;;;;3.38;2.42;;;;;;;19.68;64.52;99880.03;338611;29;1123;-78
2022/09/05 01:12:13;;;;;;;3.78;2.50;;;;;;;19.64;64.95;99872.41;338529;29;1037;-77
2022/09/05 01:12:50;;;;;;;3.20;2.70;;;;;;;19.66;64.86;99867.88;338544;29;1072;-77
2022/09/05 01:13:26;;;;;;;3.60;2.30;;;;;;;19.64;64.69;99881.19;338472;29;1036;-78
2022/09/05 01:14:05;;;;;;;3.00;2.67;;;;;;;19.60;64.83;99878.81;338478;29;1254;-78
2022/09/05 01:14:48;;;;;;;3.08;2.33;;;;;;;19.60;64.76;99874.41;338499;29;1102;-78
2022/09/05 01:15:24;;;;;;;2.95;2.47;;;;;;;19.60;64.85;99879.69;338768;29;856;-78
2022/09/05 01:16:01;;;;;;;3.00;2.70;;;;;;;19.50;64.78;99878.63;338300;29;1037;-77
2022/09/05 01:16:45;;;;;;;3.17;2.50;;;;;;;19.30;65.71;99877.28;338464;29;1219;-78
2022/09/05 01:17:35;;;;;;;2.60;2.40;;;;;;;19.40;65.54;99878.38;338478;29;1040;-78
2022/09/05 01:17:56;;;;;;;3.38;2.60;;;;;;;19.45;65.53;99875.44;338094;29;1266;-78
2022/09/05 01:18:13;;;;;;;2.53;2.30;;;;;;;19.48;65.11;99875.25;338482;29;1083;-78
2022/09/05 01:18:33;;;;;;;2.60;2.38;;;;;;;19.44;65.38;99885.13;338504;29;889;-78
2022/09/05 01:18:48;;;;;;;4.20;2.60;;;;;;;19.36;65.77;99871.63;338548;29;1106;-77
2022/09/05 01:19:27;;;;;;;3.08;2.50;;;;;;;19.27;66.50;99882.75;338428;29;1157;-78
2022/09/05 01:20:10;;;;;;;2.92;2.28;;;;;;;19.34;65.90;99878.78;338457;29;1088;-78
2022/09/05 01:21:17;;;;;;;4.93;2.42;;;;;;;19.40;65.53;99877.50;338332;29;1048;-78
2022/09/05 01:21:51;;;;;;;3.05;2.38;;;;;;;19.44;65.37;99876.38;330833;29;1570;-78
2022/09/05 01:22:17;;;;;;;3.65;2.50;;;;;;;19.43;65.52;99872.88;333262;29;1295;-78
2022/09/05 01:22:56;;;;;;;2.63;2.40;;;;;;;19.40;65.47;99878.38;337191;29;1112;-78
2022/09/05 01:23:31;;;;;;;3.38;2.50;;;;;;;19.41;65.60;99877.41;337226;29;1053;-78
2022/09/05 01:23:55;;;;;;;2.78;2.40;;;;;;;19.32;66.23;99875.41;337240;29;1063;-77
2022/09/05 01:24:26;;;;;;;2.83;2.40;;;;;;;19.28;66.27;99874.75;338009;29;1306;-77
2022/09/05 01:25:14;;;;;;;2.60;2.40;;;;;;;19.39;65.70;99876.66;338444;29;1099;-77
2022/09/05 01:26:04;;;;;;;3.00;2.20;;;;;;;19.40;65.67;99883.66;338481;29;1045;-77
2022/09/05 01:26:39;;;;;;;3.00;2.42;;;;;;;19.30;66.13;99877.28;338169;29;1358;-77
2022/09/05 01:26:51;;;;;;;3.10;2.45;;;;;;;19.29;66.16;99878.22;338508;29;1069;-78
2022/09/05 01:27:41;;;;;;;3.75;2.40;;;;;;;19.39;65.63;99876.66;338551;29;1079;-77
2022/09/05 01:28:12;;;;;;;3.78;2.50;;;;;;;19.33;65.68;99877.91;338265;29;1482;-78
2022/09/05 01:29:02;;;;;;;2.75;2.55;;;;;;;19.36;65.64;99876.88;338409;29;1359;-77
2022/09/05 01:29:45;;;;;;;2.88;2.42;;;;;;;19.27;66.38;99878.31;338437;29;1004;-78
2022/09/05 01:30:29;;;;;;;3.20;2.60;;;;;;;19.26;66.17;99875.81;338559;29;1332;-77
2022/09/05 01:30:46;;;;;;;2.50;2.10;;;;;;;19.28;66.26;99874.75;338489;29;1148;-78
2022/09/05 01:31:14;;;;;;;2.80;2.45;;;;;;;19.32;65.88;99876.22;338299;29;1101;-78
2022/09/05 01:31:32;;;;;;;2.90;2.60;;;;;;;19.30;66.16;99872.03;338454;29;1177;-78
2022/09/05 01:31:49;;;;;;;2.95;2.63;;;;;;;19.32;65.85;99876.22;338416;29;1143;-78
2022/09/05 01:32:14;;;;;;;3.38;2.80;;;;;;;19.34;65.76;99873.50;338300;29;1028;-77
2022/09/05 01:32:36;;;;;;;3.22;2.40;;;;;;;19.34;65.60;99876.13;338457;29;1182;-77
2022/09/05 01:32:53;;;;;;;2.92;2.35;;;;;;;19.32;65.74;99875.41;338610;29;1058;-77
2022/09/05 01:33:28;;;;;;;2.83;2.50;;;;;;;19.31;65.76;99868.41;338455;29;1028;-78
2022/09/05 01:34:22;;;;;;;2.85;2.40;;;;;;;19.32;66.01;99873.59;338597;29;1194;-78
2022/09/05 01:35:38;;;;;;;3.88;2.40;;;;;;;19.33;65.62;99871.81;338087;29;1684;-78
2022/09/05 01:36:05;;;;;;;3.10;2.53;;;;;;;19.30;65.93;99872.84;331811;29;1180;-78
2022/09/05 01:36:31;;;;;;;3.85;2.30;;;;;;;19.26;66.24;99871.38;333094;29;1190;-78
2022/09/05 01:36:57;;;;;;;3.17;2.42;;;;;;;19.27;66.25;99869.56;333167;29;1198;-78
2022/09/05 01:37:13;;;;;;;2.67;2.40;;;;;;;19.28;65.82;99863.38;333217;29;1045;-78
2022/09/05 01:38:05;;;;;;;3.78;2.47;;;;;;;19.28;66.50;99863.38;333127;29;1347;-78
2022/09/05 01:38:24;;;;;;;2.97;2.58;;;;;;;19.24;66.08;99861.88;337826;29;1039;-77
2022/09/05 01:39:02;;;;;;;4.30;2.58;;;;;;;19.27;65.97;99859.03;336950;29;1075;-77
2022/09/05 01:39:53;;;;;;;3.10;2.40;;;;;;;19.28;65.71;99869.47;336843;29;1471;-78
2022/09/05 01:40:35;;;;;;;2.80;2.28;;;;;;;19.25;65.76;99859.13;337030;29;1379;-77
2022/09/05 01:41:11;;;;;;;3.53;2.38;;;;;;;19.22;66.07;99869.03;338574;29;1170;-77
2022/09/05 01:41:42;;;;;;;3.47;2.50;;;;;;;19.06;66.59;99866.53;338463;29;1043;-77
2022/09/05 01:42:18;;;;;;;2.90;2.50;;;;;;;19.11;66.39;99862.66;338411;29;1345;-78
2022/09/05 01:42:49;;;;;;;2.80;2.50;;;;;;;19.12;66.51;99864.34;338451;29;1326;-78
2022/09/05 01:43:40;;;;;;;3.13;2.40;;;;;;;19.09;66.74;99858.44;338344;29;1172;-77
2022/09/05 01:44:13;;;;;;;3.75;2.47;;;;;;;19.09;66.69;99859.25;337175;29;1012;-77
2022/09/05 01:44:54;;;;;;;3.13;2.58;;;;;;;18.86;67.60;99857.28;336989;29;1174;-77
2022/09/05 01:45:22;;;;;;;4.30;2.50;;;;;;;18.86;67.54;99859.91;337035;29;1295;-77
2022/09/05 01:45:46;;;;;;;3.88;2.47;;;;;;;18.94;67.10;99860.28;337243;29;1064;-78
2022/09/05 01:46:17;;;;;;;3.67;2.70;;;;;;;18.87;67.12;99858.97;338124;29;1191;-78
2022/09/05 01:46:35;;;;;;;2.58;2.38;;;;;;;18.96;66.98;99853.94;336832;29;1243;-77
2022/09/05 01:47:08;;;;;;;3.03;2.50;;;;;;;19.00;66.84;99857.25;337011;29;1094;-77
2022/09/05 01:47:38;;;;;;;2.50;2.28;;;;;;;18.99;66.74;99863.44;337042;29;1066;-78
2022/09/05 01:48:03;;;;;;;2.85;2.55;;;;;;;19.02;66.64;99858.00;337047;29;1455;-78
2022/09/05 01:48:24;;;;;;;3.30;2.60;;;;;;;19.00;66.92;99856.41;336967;29;1054;-78
2022/09/05 01:49:32;;;;;;;2.90;2.42;;;;;;;18.93;67.04;99853.31;336965;29;1186;-78
2022/09/05 01:50:24;;;;;;;2.80;2.40;;;;;;;18.74;68.26;99854.44;336877;29;1083;-78
2022/09/05 01:50:45;;;;;;;4.00;2.67;;;;;;;18.84;67.30;99860.00;331910;29;1101;-77
2022/09/05 01:51:15;;;;;;;3.03;2.40;;;;;;;18.84;67.36;99859.16;333945;29;1280;-78
2022/09/05 01:51:55;;;;;;;4.30;2.70;;;;;;;18.81;67.30;99859.34;335709;29;1071;-78
2022/09/05 01:52:38;;;;;;;4.07;2.60;;;;;;;18.67;67.87;99861.06;335711;29;1250;-78
2022/09/05 01:53:25;;;;;;;3.03;2.45;;;;;;;18.77;67.44;99862.16;338554;29;1489;-78
2022/09/05 01:53:47;;;;;;;3.08;2.60;;;;;;;18.70;68.35;99868.75;338503;29;1048;-78
2022/09/05 01:54:31;;;;;;;2.88;2.40;;;;;;;18.71;67.63;99865.19;338401;29;1271;-78
2022/09/05 01:55:17;;;;;;;6.10;2.60;;;;;;;18.79;67.50;99862.06;338437;29;1124;-78
2022/09/05 01:55:57;;;;;;;3.10;2.80;;;;;;;18.57;68.74;99867.81;338484;29;1084;-78
2022/09/05 01:56:57;;;;;;;3.00;2.70;;;;;;;18.62;68.21;99871.03;338469;29;1124;-77
2022/09/05 01:57:14;;;;;;;3.63;2.88;;;;;;;18.67;67.95;99863.69;338416;29;1185;-78
2022/09/05 01:57:55;;;;;;;4.72;2.60;;;;;;;18.62;67.90;99863.13;338430;29;1239;-78
2022/09/05 01:58:23;;;;;;;3.55;2.63;;;;;;;18.59;68.45;99862.47;338288;29;1040;-78
2022/09/05 01:58:59;;;;;;;5.30;3.00;;;;;;;18.53;68.63;99866.31;338205;29;1052;-78
2022/09/05 01:59:38;;;;;;;4.00;2.90;;;;;;;18.50;68.98;99861.25;338456;29;1273;-77
2022/09/05 02:00:12;;;;;;;3.20;2.90;;;;;;;18.41;69.06;99857.41;338464;29;1104;-78
2022/09/05 02:00:48;;;;;;;3.50;2.80;;;;;;;18.47;68.86;99864.06;338458;29;1145;-78
2022/09/05 02:01:10;;;;;;;4.10;2.60;;;;;;;18.48;68.59;99852.59;338436;29;1073;-78
2022/09/05 02:02:09;;;;;;;3.95;2.67;;;;;;;18.57;68.47;99859.91;338463;29;1663;-77
2022/09/05 02:02:41;;;;;;;3.10;2.80;;;;;;;18.50;68.98;99861.25;338464;29;1064;-77
2022/09/05 02:03:32;;;;;;;3.20;2.90;;;;;;;18.33;69.59;99859.66;338404;29;1139;-77
2022/09/05 02:04:05;;;;;;;4.22;2.80;;;;;;;18.49;68.84;99856.91;338310;29;1231;-77
2022/09/05 02:04:45;;;;;;;4.68;2.70;;;;;;;18.56;68.73;99861.72;338186;29;1063;-77
2022/09/05 02:05:03;;;;;;;2.92;2.65;;;;;;;18.53;68.50;99850.50;338437;29;1305;-77
2022/09/05 02:05:52;;;;;;;3.05;2.75;;;;;;;18.53;68.72;99859.28;338431;29;1310;-77
2022/09/05 02:06:19;;;;;;;2.70;2.50;;;;;;;18.53;68.58;99853.16;338254;29;1104;-77
2022/09/05 02:06:34;;;;;;;3.10;2.80;;;;;;;18.57;68.66;99857.28;338430;29;1086;-77
2022/09/05 02:07:15;;;;;;;3.10;2.70;;;;;;;18.59;68.49;99851.94;338385;29;1254;-77
2022/09/05 02:07:53;;;;;;;4.50;3.00;;;;;;;18.47;68.76;99856.16;338403;29;1850;-78
2022/09/05 02:08:14;;;;;;;4.05;2.72;;;;;;;18.50;69.06;99851.56;338530;29;1245;-78
2022/09/05 02:08:48;;;;;;;4.25;2.67;;;;;;;18.52;68.99;99848.84;338412;29;1055;-78
2022/09/05 02:09:18;;;;;;;3.65;2.50;;;;;;;18.61;68.36;99853.50;338147;29;1098;-77
2022/09/05 02:09:39;;;;;;;4.57;2.70;;;;;;;18.63;68.33;99856.91;338171;29;1066;-77
2022/09/05 02:10:10;;;;;;;4.68;2.70;;;;;;;18.62;68.25;99855.22;338351;29;1598;-77
2022/09/05 02:10:47;;;;;;;3.83;2.63;;;;;;;18.60;68.26;99857.09;338314;29;929;-77
2022/09/05 02:11:03;;;;;;;3.05;2.55;;;;;;;18.55;68.43;99851.25;338328;29;1036;-77
2022/09/05 02:11:15;;;;;;;4.38;2.60;;;;;;;18.37;69.31;99855.88;338287;29;1156;-77
2022/09/05 02:11:57;;;;;;;4.10;2.70;;;;;;;18.39;69.75;99859.28;338444;29;1019;-78
2022/09/05 02:12:15;;;;;;;3.15;2.65;;;;;;;18.43;69.87;99860.78;336998;29;1171;-78
2022/09/05 02:12:40;;;;;;;3.45;2.90;;;;;;;18.44;69.39;99853.75;337056;29;1125;-78
2022/09/05 02:12:55;;;;;;;4.40;2.70;;;;;;;18.50;68.86;99856.81;337173;29;1088;-78
2022/09/05 02:13:32;;;;;;;3.58;2.67;;;;;;;18.45;69.09;99861.53;336839;29;1023;-78
2022/09/05 02:13:54;;;;;;;4.82;2.60;;;;;;;18.46;68.97;99857.97;336898;29;1070;-77
2022/09/05 02:14:18;;;;;;;6.38;3.00;;;;;;;18.38;69.33;99862.00;337418;29;1101;-77
2022/09/05 02:15:12;;;;;;;4.82;2.58;;;;;;;18.56;68.65;99863.50;338542;29;1068;-77
2022/09/05 02:15:34;;;;;;;3.47;2.70;;;;;;;18.58;68.74;99861.63;338210;29;1040;-77
2022/09/05 02:15:49;;;;;;;2.95;2.65;;;;;;;18.56;68.85;99863.50;338492;29;1341;-77
2022/09/05 02:16:32;;;;;;;3.20;2.90;;;;;;;18.43;69.24;99866.06;338324;29;1062;-78
2022/09/05 02:16:47;;;;;;;3.83;3.10;;;;;;;18.44;69.04;99862.47;338362;29;994;-78
2022/09/05 02:17:37;;;;;;;3.90;2.78;;;;;;;18.41;69.63;99860.03;338411;29;1047;-78
2022/09/05 02:18:09;;;;;;;3.53;2.78;;;;;;;18.56;68.81;99860.88;338201;29;1094;-78
2022/09/05 02:18:25;;;;;;;3.28;2.83;;;;;;;18.54;68.75;99857.50;338357;29;1184;-78
2022/09/05 02:18:45;;;;;;;3.22;2.80;;;;;;;18.58;68.78;99861.63;338377;29;1181;-78
2022/09/05 02:19:03;;;;;;;3.30;2.63;;;;;;;18.62;68.38;99864.91;338372;29;1095;-77
2022/09/05 02:19:22;;;;;;;2.95;2.60;;;;;;;18.61;68.46;99864.03;338183;29;1061;-77
2022/09/05 02:19:46;;;;;;;4.00;2.65;;;;;;;18.49;69.19;99859.53;338348;29;1056;-78
2022/09/05 02:20:13;;;;;;;3.95;2.75;;;;;;;18.42;69.09;99863.53;338472;29;1161;-78
2022/09/05 02:20:40;;;;;;;3.65;2.83;;;;;;;18.40;69.52;99865.41;338358;29;1077;-78
2022/09/05 02:20:57;;;;;;;4.82;2.97;;;;;;;18.36;69.27;99860.31;338388;29;1077;-77
2022/09/05 02:21:27;;;;;;;4.35;2.92;;;;;;;18.44;69.14;99859.00;338259;29;1261;-77
2022/09/05 02:21:59;;;;;;;3.40;2.90;;;;;;;18.48;69.01;99857.88;337083;29;1024;-78
2022/09/05 02:22:19;;;;;;;3.22;2.78;;;;;;;18.48;68.76;99863.97;336965;29;1022;-77
2022/09/05 02:22:41;;;;;;;3.70;2.80;;;;;;;18.56;68.54;99863.50;337253;29;873;-77
2022/09/05 02:23:09;;;;;;;5.05;2.75;;;;;;;18.58;68.68;99859.00;336916;29;1106;-78
2022/09/05 02:24:02;;;;;;;3.53;2.88;;;;;;;18.66;67.82;99856.72;338269;29;1525;-78
2022/09/05 02:24:25;;;;;;;3.50;2.42;;;;;;;18.69;67.93;99855.66;338545;29;1110;-77
2022/09/05 02:24:41;;;;;;;3.47;2.88;;;;;;;18.63;68.19;99856.91;338459;29;1108;-77
2022/09/05 02:25:03;;;;;;;3.15;2.83;;;;;;;18.60;68.40;99862.38;338360;29;1197;-77
2022/09/05 02:26:00;;;;;;;3.97;3.10;;;;;;;18.60;68.28;99857.09;338404;29;1472;-77
2022/09/05 02:26:24;;;;;;;4.38;2.72;;;;;;;18.54;68.45;99862.75;338255;29;1105;-77
2022/09/05 02:26:52;;;;;;;4.10;2.67;;;;;;;18.50;68.80;99856.00;338407;29;1061;-77
2022/09/05 02:27:19;;;;;;;3.60;2.78;;;;;;;18.54;68.58;99862.75;338442;29;1112;-77
2022/09/05 02:28:03;;;;;;;2.90;2.60;;;;;;;18.64;68.25;99869.13;338392;29;1364;-77
2022/09/05 02:28:45;;;;;;;2.97;2.63;;;;;;;18.64;68.17;99858.59;338238;29;1327;-77
2022/09/05 02:29:42;;;;;;;3.17;2.88;;;;;;;18.61;68.13;99864.03;334364;29;1194;-77
2022/09/05 02:30:15;;;;;;;4.38;3.00;;;;;;;18.53;69.01;99866.31;334153;29;1211;-77
2022/09/05 02:30:34;;;;;;;3.47;2.90;;;;;;;18.50;69.45;99869.16;337037;29;1017;-78
2022/09/05 02:30:52;;;;;;;2.97;2.65;;;;;;;18.41;69.17;99867.06;337059;29;1105;-78
2022/09/05 02:31:49;;;;;;;4.93;3.00;;;;;;;18.40;68.95;99862.78;338279;29;1370;-77
2022/09/05 02:32:14;;;;;;;2.95;2.60;;;;;;;18.50;68.88;99863.88;338432;29;1000;-77
2022/09/05 02:32:35;;;;;;;3.17;2.85;;;;;;;18.55;68.32;99861.78;338222;29;972;-77
2022/09/05 02:33:03;;;;;;;4.70;3.00;;;;;;;18.58;68.40;99864.25;338411;29;1255;-78
2022/09/05 02:33:33;;;;;;;4.30;3.00;;;;;;;18.58;68.34;99858.16;338053;29;1833;-78
2022/09/05 02:33:58;;;;;;;3.88;3.00;;;;;;;18.59;68.29;99858.03;338320;29;1141;-78